Tancred — LALX4 — position and weather

sailwx.info

Track history (hours):
 
Tides and Currents Weather Stations Pressure Air Temp Water Temp Dewpoint Dewpoint Depression Visibility Wind Speed Wind Dir Waves Ship Positions

Tancred

Last reported at 2014-Dec-17 07:05 UTC. Time now 2014-Dec-22 01:22 UTC.
Position N 32°38' W 118°21'.

Length 190 m; draft 7.4 m.

Type: Cargo ship. MMSI: 258787000.

Date/timePositionNaut miles runAvg speedWind from/ knotsBaromVisibWave heightAir tempDewpointWater temp
2014-Dec-17 07:05N 32°38' W 118°21'713.5
2014-Dec-17 06:33N 32°38' W 118°13'1313.5
2014-Dec-17 05:33N 32°38' W 117°57'1413.8
2014-Dec-17 04:33N 32°38' W 117°41'1514.5
2014-Dec-17 03:33N 32°38' W 117°23'8 8.4
2014-Dec-17 02:33N 32°40' W 117°14'5 5.4
2014-Dec-17 01:33N 32°39' W 117°07'0 0.4
2014-Dec-17 00:33N 32°39' W 117°07'0 0.0
2014-Dec-16 23:30N 32°39' W 117°07'0 0.0
2014-Dec-16 22:33N 32°39' W 117°07'0 0.0
2014-Dec-16 21:33N 32°39' W 117°07'0 0.0
2014-Dec-16 20:33N 32°39' W 117°07'0 0.0
2014-Dec-16 19:30N 32°39' W 117°07'0 0.0
2014-Dec-16 18:33N 32°39' W 117°07'0 0.0
2014-Dec-16 17:33N 32°39' W 117°07'0 0.0
2014-Dec-16 16:33N 32°39' W 117°07'0 0.0
2014-Dec-16 15:33N 32°39' W 117°07'0 0.4
2014-Dec-16 14:33N 32°39' W 117°07'6 6.3
2014-Dec-16 13:34N 32°43' W 117°13'6 6.3
2014-Dec-16 12:34N 32°38' W 117°18'10 9.9
2014-Dec-16 11:34N 32°43' W 117°28'1312.9
2014-Dec-16 10:33N 32°49' W 117°41'1615.9
2014-Dec-16 09:33N 32°57' W 117°58'1615.7
2014-Dec-16 08:33N 33°04' W 118°14'1615.5
2014-Dec-16 07:33N 33°12' W 118°30'1515.3
2014-Dec-16 06:33N 33°25' W 118°41'171 5.7
2014-Dec-15 00:17N 34°20' W 121°57'  
Track history (hours):
 
Tides and Currents Weather Stations Pressure Air Temp Water Temp Dewpoint Dewpoint Depression Visibility Wind Speed Wind Dir Waves Ship Positions

Tancred

Last reported at 2014-Dec-17 07:05 UTC. Time now 2014-Dec-22 01:22 UTC.
Position N 32°38' W 118°21'.

Length 190 m; draft 7.4 m.

Type: Cargo ship. MMSI: 258787000.

Date/timePositionNaut miles runAvg speedWind from/ knotsBaromVisibWave heightAir tempDewpointWater temp
2014-Dec-17 07:05N 32°38' W 118°21'713.5
2014-Dec-17 06:33N 32°38' W 118°13'1313.5
2014-Dec-17 05:33N 32°38' W 117°57'1413.8
2014-Dec-17 04:33N 32°38' W 117°41'1514.5
2014-Dec-17 03:33N 32°38' W 117°23'8 8.4
2014-Dec-17 02:33N 32°40' W 117°14'5 5.4
2014-Dec-17 01:33N 32°39' W 117°07'0 0.4
2014-Dec-17 00:33N 32°39' W 117°07'0 0.0
2014-Dec-16 23:30N 32°39' W 117°07'0 0.0
2014-Dec-16 22:33N 32°39' W 117°07'0 0.0
2014-Dec-16 21:33N 32°39' W 117°07'0 0.0
2014-Dec-16 20:33N 32°39' W 117°07'0 0.0
2014-Dec-16 19:30N 32°39' W 117°07'0 0.0
2014-Dec-16 18:33N 32°39' W 117°07'0 0.0
2014-Dec-16 17:33N 32°39' W 117°07'0 0.0
2014-Dec-16 16:33N 32°39' W 117°07'0 0.0
2014-Dec-16 15:33N 32°39' W 117°07'0 0.4
2014-Dec-16 14:33N 32°39' W 117°07'6 6.3
2014-Dec-16 13:34N 32°43' W 117°13'6 6.3
2014-Dec-16 12:34N 32°38' W 117°18'10 9.9
2014-Dec-16 11:34N 32°43' W 117°28'1312.9
2014-Dec-16 10:33N 32°49' W 117°41'1615.9
2014-Dec-16 09:33N 32°57' W 117°58'1615.7
2014-Dec-16 08:33N 33°04' W 118°14'1615.5
2014-Dec-16 07:33N 33°12' W 118°30'1515.3
2014-Dec-16 06:33N 33°25' W 118°41'171 5.7
2014-Dec-15 00:17N 34°20' W 121°57'  

Dump ship's entire track history